Nanticoke — VCQL — position and weather

sailwx.info

Track history (hours):
 
Tides and Currents Weather Stations Pressure Air Temp Water Temp Dewpoint Dewpoint Depression Visibility Wind Speed Wind Dir Waves Ship Positions

Nanticoke

Last reported at 2017-Aug-11 17:05 UTC. Time now 2017-Aug-18 18:04 UTC.
Position N 45°31' W 073°32'.

Length 223 m; draft 8 m.

Type: Cargo ship. MMSI: 316043000.

Date/timePositionNaut miles runAvg speedWind from/ knotsBaromVisibWave heightAir tempDewpointWater temp
2017-Aug-11 17:05N 45°31' W 073°32'1 6.4
2017-Aug-11 16:55N 45°30' W 073°31'1 1.0
2017-Aug-11 16:20N 45°30' W 073°31'0 1.1
2017-Aug-11 16:01N 45°29' W 073°31'1 1.1
2017-Aug-11 15:29N 45°29' W 073°31'2 3.5
2017-Aug-11 15:00N 45°27' W 073°30'2 4.4
2017-Aug-11 14:29N 45°25' W 073°31'2 2.4
2017-Aug-11 13:31N 45°24' W 073°34'1 2.8
2017-Aug-11 13:00N 45°24' W 073°36'3 5.2
2017-Aug-11 12:30N 45°25' W 073°40'3 6.1
2017-Aug-11 12:00N 45°24' W 073°44'510.6
2017-Aug-11 11:30N 45°21' W 073°51'4 8.1
2017-Aug-11 11:00N 45°19' W 073°55'0 0.5
2017-Aug-11 10:30N 45°19' W 073°55'1 1.2
2017-Aug-11 10:00N 45°18' W 073°56'0 0.4
2017-Aug-11 09:30N 45°18' W 073°56'1 2.6
2017-Aug-11 09:00N 45°17' W 073°57'5 9.4
2017-Aug-11 08:30N 45°14' W 074°01'5 9.5
2017-Aug-11 08:00N 45°14' W 074°08'510.6
2017-Aug-11 07:30N 45°13' W 074°16'612.8
2017-Aug-11 07:00N 45°09' W 074°23'511.1
2017-Aug-11 06:30N 45°06' W 074°29'510.3
2017-Aug-11 06:00N 45°03' W 074°34'510.0
2017-Aug-11 05:30N 45°00' W 074°40'  
2017-Aug-08 03:07N 45°26' W 083°13'212.6
2017-Aug-08 02:58N 45°28' W 083°15'612.8
2017-Aug-08 02:30N 45°32' W 083°21'613.0
2017-Aug-08 02:00N 45°37' W 083°27'713.0
2017-Aug-08 01:30N 45°41' W 083°33'1513.2
2017-Aug-08 00:20N 45°53' W 083°48'412.8
2017-Aug-08 00:00N 45°56' W 083°52'1810.5
2017-Aug-07 22:19N 46°11' W 084°06'3 9.8
2017-Aug-07 22:00N 46°13' W 084°09'  
2017-Aug-05 09:44N 46°15' W 084°06'1 6.5
2017-Aug-05 09:30N 46°14' W 084°07'18 9.4
2017-Aug-05 07:36N 45°59' W 083°53'210.7
2017-Aug-05 07:25N 45°57' W 083°53'511.2
2017-Aug-05 06:58N 45°52' W 083°49'711.1
2017-Aug-05 06:19N 45°47' W 083°43'410.0
2017-Aug-05 05:54N 45°43' W 083°40'410.6
2017-Aug-05 05:30N 45°40' W 083°36'611.1
2017-Aug-05 05:00N 45°35' W 083°31'611.6
2017-Aug-05 04:30N 45°31' W 083°26'611.7
2017-Aug-05 04:00N 45°26' W 083°22'  
Track history (hours):
 
Tides and Currents Weather Stations Pressure Air Temp Water Temp Dewpoint Dewpoint Depression Visibility Wind Speed Wind Dir Waves Ship Positions

Nanticoke

Last reported at 2017-Aug-11 17:05 UTC. Time now 2017-Aug-18 18:04 UTC.
Position N 45°31' W 073°32'.

Length 223 m; draft 8 m.

Type: Cargo ship. MMSI: 316043000.

Date/timePositionNaut miles runAvg speedWind from/ knotsBaromVisibWave heightAir tempDewpointWater temp
2017-Aug-11 17:05N 45°31' W 073°32'1 6.4
2017-Aug-11 16:55N 45°30' W 073°31'1 1.0
2017-Aug-11 16:20N 45°30' W 073°31'0 1.1
2017-Aug-11 16:01N 45°29' W 073°31'1 1.1
2017-Aug-11 15:29N 45°29' W 073°31'2 3.5
2017-Aug-11 15:00N 45°27' W 073°30'2 4.4
2017-Aug-11 14:29N 45°25' W 073°31'2 2.4
2017-Aug-11 13:31N 45°24' W 073°34'1 2.8
2017-Aug-11 13:00N 45°24' W 073°36'3 5.2
2017-Aug-11 12:30N 45°25' W 073°40'3 6.1
2017-Aug-11 12:00N 45°24' W 073°44'510.6
2017-Aug-11 11:30N 45°21' W 073°51'4 8.1
2017-Aug-11 11:00N 45°19' W 073°55'0 0.5
2017-Aug-11 10:30N 45°19' W 073°55'1 1.2
2017-Aug-11 10:00N 45°18' W 073°56'0 0.4
2017-Aug-11 09:30N 45°18' W 073°56'1 2.6
2017-Aug-11 09:00N 45°17' W 073°57'5 9.4
2017-Aug-11 08:30N 45°14' W 074°01'5 9.5
2017-Aug-11 08:00N 45°14' W 074°08'510.6
2017-Aug-11 07:30N 45°13' W 074°16'612.8
2017-Aug-11 07:00N 45°09' W 074°23'511.1
2017-Aug-11 06:30N 45°06' W 074°29'510.3
2017-Aug-11 06:00N 45°03' W 074°34'510.0
2017-Aug-11 05:30N 45°00' W 074°40'  
2017-Aug-08 03:07N 45°26' W 083°13'212.6
2017-Aug-08 02:58N 45°28' W 083°15'612.8
2017-Aug-08 02:30N 45°32' W 083°21'613.0
2017-Aug-08 02:00N 45°37' W 083°27'713.0
2017-Aug-08 01:30N 45°41' W 083°33'1513.2
2017-Aug-08 00:20N 45°53' W 083°48'412.8
2017-Aug-08 00:00N 45°56' W 083°52'1810.5
2017-Aug-07 22:19N 46°11' W 084°06'3 9.8
2017-Aug-07 22:00N 46°13' W 084°09'  
2017-Aug-05 09:44N 46°15' W 084°06'1 6.5
2017-Aug-05 09:30N 46°14' W 084°07'18 9.4
2017-Aug-05 07:36N 45°59' W 083°53'210.7
2017-Aug-05 07:25N 45°57' W 083°53'511.2
2017-Aug-05 06:58N 45°52' W 083°49'711.1
2017-Aug-05 06:19N 45°47' W 083°43'410.0
2017-Aug-05 05:54N 45°43' W 083°40'410.6
2017-Aug-05 05:30N 45°40' W 083°36'611.1
2017-Aug-05 05:00N 45°35' W 083°31'611.6
2017-Aug-05 04:30N 45°31' W 083°26'611.7
2017-Aug-05 04:00N 45°26' W 083°22'  

Dump ship's entire track history